createdAt,value
2018-04-23T00:02:19.399Z,17.90
2018-04-23T00:04:45.537Z,14.40
2018-04-23T00:07:11.664Z,16.37
2018-04-23T00:09:37.789Z,18.87
2018-04-23T00:12:04.630Z,17.77
2018-04-23T00:14:30.746Z,21.13
2018-04-23T00:16:56.810Z,20.33
2018-04-23T00:19:22.907Z,16.90
2018-04-23T00:21:49.837Z,24.47
2018-04-23T00:24:17.322Z,18.50
2018-04-23T00:26:43.451Z,18.50
2018-04-23T00:29:09.563Z,16.40
2018-04-23T00:31:35.679Z,21.60
2018-04-23T00:34:01.829Z,19.80
2018-04-23T00:36:28.738Z,14.40
2018-04-23T00:38:54.825Z,19.65
2018-04-23T00:41:21.673Z,16.87
2018-04-23T00:43:47.762Z,23.90
2018-04-23T00:46:13.854Z,18.13
2018-04-23T00:48:39.949Z,17.08
2018-04-23T00:51:06.050Z,19.55
2018-04-23T00:53:37.924Z,15.90
2018-04-23T00:56:04.428Z,19.62
2018-04-23T00:58:30.569Z,14.63
2018-04-23T01:00:56.676Z,14.25
2018-04-23T01:03:22.746Z,15.38
2018-04-23T01:05:49.529Z,13.90
2018-04-23T01:08:15.645Z,14.75
2018-04-23T01:10:41.737Z,12.40
2018-04-23T01:13:07.799Z,11.95
2018-04-23T01:15:33.897Z,13.70
2018-04-23T01:18:00.791Z,12.43
2018-04-23T01:20:26.876Z,15.55
2018-04-23T01:22:53.002Z,14.25
2018-04-23T01:25:19.108Z,11.30
2018-04-23T01:27:45.252Z,10.60
2018-04-23T01:30:11.316Z,12.83
2018-04-23T01:32:37.422Z,10.88
2018-04-23T01:35:03.554Z,10.03
2018-04-23T01:37:36.659Z,14.40
2018-04-23T01:40:02.730Z,9.77
2018-04-23T01:42:28.901Z,13.95
2018-04-23T01:44:55.026Z,12.30
2018-04-23T01:47:21.141Z,15.77
2018-04-23T01:49:47.285Z,11.80
2018-04-23T01:52:13.406Z,9.63
2018-04-23T01:54:39.522Z,11.82
2018-04-23T01:57:05.636Z,10.82
2018-04-23T01:59:32.370Z,13.20
2018-04-23T02:01:58.522Z,8.98
2018-04-23T02:04:25.369Z,12.75
2018-04-23T02:06:51.547Z,9.75
2018-04-23T02:09:17.686Z,10.93
2018-04-23T02:11:44.558Z,12.55
2018-04-23T02:14:10.749Z,9.60
2018-04-23T02:16:36.877Z,10.68
2018-04-23T02:19:02.991Z,10.90
2018-04-23T02:21:29.377Z,8.90
2018-04-23T02:23:55.487Z,13.05
2018-04-23T02:26:21.609Z,14.87
2018-04-23T02:28:47.734Z,10.57
2018-04-23T02:31:13.870Z,11.00
2018-04-23T02:33:40.224Z,12.27
2018-04-23T02:36:06.329Z,10.43
2018-04-23T02:38:32.418Z,12.43
2018-04-23T02:40:58.540Z,10.98
2018-04-23T02:43:24.602Z,10.10
2018-04-23T02:45:50.915Z,12.88
2018-04-23T02:48:16.961Z,12.52
2018-04-23T02:50:43.065Z,11.38
2018-04-23T02:53:09.918Z,11.43
2018-04-23T02:55:36.771Z,13.23
2018-04-23T02:58:03.660Z,16.27
2018-04-23T03:00:29.954Z,16.90
2018-04-23T03:02:56.040Z,13.53
2018-04-23T03:05:22.118Z,15.90
2018-04-23T03:07:48.199Z,15.47
2018-04-23T03:10:14.333Z,16.25
2018-04-23T03:12:40.478Z,20.05
2018-04-23T03:15:07.293Z,13.00
2018-04-23T03:17:33.413Z,15.80
2018-04-23T03:19:59.567Z,14.20
2018-04-23T03:22:25.706Z,14.18
2018-04-23T03:24:51.901Z,15.02
2018-04-23T03:27:20.071Z,13.82
2018-04-23T03:29:46.862Z,16.25
2018-04-23T03:32:13.141Z,16.27
2018-04-23T03:34:39.220Z,18.25
2018-04-23T03:37:05.352Z,17.45
2018-04-23T03:39:31.464Z,18.98
2018-04-23T03:41:58.286Z,21.52
2018-04-23T03:44:24.493Z,18.60
2018-04-23T03:46:50.617Z,19.60
2018-04-23T03:49:17.414Z,20.62
2018-04-23T03:51:43.550Z,20.67
2018-04-23T03:54:09.647Z,24.73
2018-04-23T03:56:36.468Z,21.85
2018-04-23T03:59:02.595Z,21.48
2018-04-23T04:01:28.829Z,19.13
2018-04-23T04:03:54.911Z,24.77
2018-04-23T04:06:21.008Z,22.17
2018-04-23T04:08:47.098Z,23.20
2018-04-23T04:11:13.971Z,23.05
2018-04-23T04:13:52.726Z,21.80
2018-04-23T04:16:31.117Z,24.27
2018-04-23T04:18:58.289Z,24.10
2018-04-23T04:21:24.372Z,23.27
2018-04-23T04:23:50.460Z,25.70
2018-04-23T04:26:17.326Z,21.95
2018-04-23T04:28:43.419Z,24.65
2018-04-23T04:31:10.393Z,26.33
2018-04-23T04:33:36.524Z,24.08
2018-04-23T04:36:03.425Z,27.23
2018-04-23T04:38:29.595Z,26.58
2018-04-23T04:40:55.812Z,24.17
2018-04-23T04:43:21.915Z,27.90
2018-04-23T04:45:47.982Z,27.90
2018-04-23T04:48:14.099Z,24.00
2018-04-23T04:50:40.261Z,27.25
2018-04-23T04:53:06.366Z,30.10
2018-04-23T04:55:32.633Z,27.35
2018-04-23T04:57:58.718Z,33.22
2018-04-23T05:00:24.929Z,28.08
2018-04-23T05:02:51.066Z,30.98
2018-04-23T05:05:17.157Z,29.30
2018-04-23T05:07:43.218Z,36.80
2018-04-23T05:10:10.110Z,33.33
2018-04-23T05:12:36.223Z,30.12
2018-04-23T05:15:03.118Z,35.88
2018-04-23T05:17:29.348Z,27.52
2018-04-23T05:19:56.507Z,32.78
2018-04-23T05:22:23.089Z,35.08
2018-04-23T05:24:49.223Z,34.25
2018-04-23T05:27:16.681Z,34.42
2018-04-23T05:32:15.528Z,32.50
2018-04-23T05:34:41.606Z,40.03
2018-04-23T05:37:07.740Z,30.55
2018-04-23T05:39:33.835Z,35.83
2018-04-23T05:41:59.975Z,35.03
2018-04-23T05:44:26.114Z,31.13
2018-04-23T05:46:52.379Z,40.38
2018-04-23T05:49:18.581Z,35.42
2018-04-23T05:51:44.664Z,36.03
2018-04-23T05:54:10.758Z,35.55
2018-04-23T05:56:36.929Z,38.10
2018-04-23T05:59:03.039Z,30.27
2018-04-23T06:01:29.091Z,36.70
2018-04-23T06:03:55.183Z,32.08
2018-04-23T06:06:22.030Z,35.83
2018-04-23T06:08:48.121Z,32.13
2018-04-23T06:11:14.206Z,34.23
2018-04-23T06:13:40.422Z,35.60
2018-04-23T06:16:06.535Z,36.60
2018-04-23T06:18:32.616Z,36.70
2018-04-23T06:20:58.682Z,37.20
2018-04-23T06:23:25.600Z,35.80
2018-04-23T06:25:51.654Z,35.90
2018-04-23T06:28:17.948Z,43.03
2018-04-23T06:30:44.117Z,32.63
2018-04-23T06:33:10.219Z,37.40
2018-04-23T06:35:36.306Z,37.80
2018-04-23T06:38:02.487Z,34.58
2018-04-23T06:40:28.554Z,38.45
2018-04-23T06:42:54.633Z,37.00
2018-04-23T06:45:21.113Z,39.80
2018-04-23T06:47:47.252Z,43.58
2018-04-23T06:50:13.368Z,39.37
2018-04-23T06:52:39.498Z,40.92
2018-04-23T06:55:05.584Z,40.78
2018-04-23T06:57:31.688Z,35.50
2018-04-23T06:59:58.881Z,44.83
2018-04-23T07:02:25.070Z,41.55
2018-04-23T07:04:51.187Z,41.80
2018-04-23T07:07:18.167Z,41.33
2018-04-23T07:09:44.272Z,45.00
2018-04-23T07:12:10.364Z,42.83
2018-04-23T07:14:37.246Z,45.55
2018-04-23T07:17:03.371Z,44.05
2018-04-23T07:19:30.249Z,49.92
2018-04-23T07:21:56.419Z,49.38
2018-04-23T07:24:22.505Z,45.78
2018-04-23T07:26:48.636Z,46.00
2018-04-23T07:29:15.525Z,46.72
2018-04-23T07:31:41.602Z,43.78
2018-04-23T07:34:07.669Z,45.25
2018-04-23T07:36:34.500Z,45.97
2018-04-23T07:39:00.630Z,53.60
2018-04-23T07:41:26.786Z,58.80
2018-04-23T07:43:53.069Z,52.33
2018-04-23T07:46:19.143Z,55.55
2018-04-23T07:48:45.263Z,58.85
2018-04-23T07:51:11.415Z,45.87
2018-04-23T07:53:38.234Z,47.42
2018-04-23T07:56:04.327Z,51.58
2018-04-23T07:58:30.422Z,48.10
2018-04-23T08:00:56.521Z,49.85
2018-04-23T08:03:22.664Z,53.58
2018-04-23T08:05:48.788Z,50.67
2018-04-23T08:08:14.867Z,46.67
2018-04-23T08:10:41.722Z,44.60
2018-04-23T08:13:07.799Z,48.58
2018-04-23T08:15:33.852Z,49.58
2018-04-23T08:18:00.090Z,50.95
2018-04-23T08:20:26.267Z,46.35
2018-04-23T08:22:52.627Z,45.22
2018-04-23T08:25:18.733Z,44.70
2018-04-23T08:27:44.842Z,46.37
2018-04-23T08:30:11.016Z,48.60
2018-04-23T08:32:37.116Z,47.05
2018-04-23T08:35:03.265Z,44.25
2018-04-23T08:37:29.399Z,52.87
2018-04-23T08:39:55.469Z,46.75
2018-04-23T08:42:21.566Z,54.63
2018-04-23T08:44:47.664Z,52.47
2018-04-23T08:47:14.466Z,47.97
2018-04-23T08:49:40.591Z,54.75
2018-04-23T08:52:06.666Z,61.97
2018-04-23T08:54:32.860Z,59.63
2018-04-23T08:56:58.935Z,58.50
2018-04-23T08:59:25.139Z,58.20
2018-04-23T09:01:51.231Z,66.40
2018-04-23T09:04:17.368Z,51.80
2018-04-23T09:06:43.581Z,55.88
2018-04-23T09:09:09.679Z,65.80
2018-04-23T09:11:35.893Z,63.15
2018-04-23T09:14:01.976Z,60.83
2018-04-23T09:16:28.034Z,66.80
2018-04-23T09:18:54.140Z,57.47
2018-04-23T09:21:20.232Z,56.80
2018-04-23T09:23:46.306Z,61.73
2018-04-23T09:26:12.389Z,68.00
2018-04-23T09:28:38.461Z,71.53
2018-04-23T09:31:04.530Z,72.50
2018-04-23T09:33:31.548Z,71.13
2018-04-23T09:35:57.619Z,64.67
2018-04-23T09:38:24.438Z,70.17
2018-04-23T09:40:50.527Z,77.17
2018-04-23T09:43:16.590Z,64.63
2018-04-23T09:45:42.642Z,57.27
2018-04-23T09:48:08.701Z,61.07
2018-04-23T09:50:34.735Z,62.83
2018-04-23T09:53:00.816Z,60.57
2018-04-23T09:55:27.062Z,58.50
2018-04-23T09:57:53.205Z,66.87
2018-04-23T10:00:25.373Z,57.62
2018-04-23T10:02:51.499Z,60.10
2018-04-23T10:05:17.564Z,59.70
2018-04-23T10:07:43.665Z,52.13
2018-04-23T10:10:09.805Z,55.60
2018-04-23T10:12:36.609Z,50.75
2018-04-23T10:15:02.670Z,51.13
2018-04-23T10:17:28.751Z,56.10
2018-04-23T10:19:54.949Z,59.40
2018-04-23T10:22:21.008Z,58.80
2018-04-23T11:20:52.074Z,16.53
2018-04-23T11:23:18.350Z,17.93
2018-04-23T11:25:44.428Z,13.60
2018-04-23T11:28:11.274Z,13.93
2018-04-23T11:30:37.354Z,13.40
2018-04-23T11:33:03.440Z,8.33
2018-04-23T11:35:29.516Z,7.37
2018-04-23T11:37:55.652Z,7.30
2018-04-23T11:40:21.741Z,7.43
2018-04-23T11:42:48.004Z,6.77
2018-04-23T11:45:14.821Z,5.90
2018-04-23T11:47:40.865Z,5.57
2018-04-23T11:50:07.138Z,3.27
2018-04-23T11:52:33.938Z,3.00
2018-04-23T11:55:00.028Z,5.73
2018-04-23T11:57:26.466Z,3.20
2018-04-23T11:59:53.367Z,3.50
2018-04-23T12:02:19.532Z,4.77
2018-04-23T12:04:45.661Z,6.70
2018-04-23T12:07:11.739Z,4.03
2018-04-23T12:09:37.835Z,3.83
2018-04-23T12:12:03.893Z,6.00
2018-04-23T12:14:30.035Z,4.50
2018-04-23T12:16:56.221Z,3.80
2018-04-23T12:19:22.682Z,9.33
2018-04-23T12:21:48.832Z,6.30
2018-04-23T12:24:14.901Z,7.97
2018-04-23T12:26:41.128Z,6.70
2018-04-23T12:29:07.354Z,5.20
2018-04-23T12:31:33.495Z,9.73
2018-04-23T12:33:59.708Z,14.30
2018-04-23T12:36:26.595Z,12.40
2018-04-23T12:38:52.779Z,8.75
2018-04-23T12:41:18.901Z,7.20
2018-04-23T12:43:45.026Z,7.97
2018-04-23T12:46:11.140Z,5.93
2018-04-23T12:48:37.205Z,5.13
2018-04-23T12:51:03.410Z,8.50
2018-04-23T12:53:29.448Z,5.73
2018-04-23T12:55:56.327Z,7.13
2018-04-23T12:58:22.498Z,9.90
2018-04-23T13:00:49.437Z,9.17
2018-04-23T13:03:15.522Z,10.83
2018-04-23T13:05:41.717Z,9.53
2018-04-23T13:08:07.808Z,8.93
2018-04-23T13:10:34.681Z,6.07
2018-04-23T13:13:01.615Z,6.83
2018-04-23T13:15:27.648Z,6.90
2018-04-23T13:17:54.751Z,21.03
2018-04-23T13:20:20.792Z,6.57
2018-04-23T13:22:46.830Z,6.30
2018-04-23T13:25:12.901Z,6.47
2018-04-23T13:27:39.063Z,5.27
2018-04-23T13:30:05.120Z,8.67
2018-04-23T13:32:31.955Z,7.00
2018-04-23T13:34:58.123Z,5.97
2018-04-23T13:37:24.323Z,7.63
2018-04-23T13:39:50.438Z,9.20
2018-04-23T13:42:16.556Z,3.70
2018-04-23T13:44:42.878Z,5.80
2018-04-23T13:47:09.720Z,8.27
2018-04-23T13:49:35.765Z,4.70
2018-04-23T13:52:02.833Z,5.90
2018-04-23T13:54:30.235Z,8.27
2018-04-23T13:56:56.377Z,6.40
2018-04-23T13:59:23.280Z,6.77
2018-04-23T14:01:50.192Z,6.90
2018-04-23T14:04:16.246Z,7.40
2018-04-23T14:06:43.306Z,6.90
2018-04-23T14:09:09.357Z,7.60
2018-04-23T14:11:35.552Z,5.63
2018-04-23T14:14:01.722Z,10.03
2018-04-23T14:16:27.836Z,9.70
2018-04-23T14:18:53.961Z,9.57
2018-04-23T14:21:20.082Z,11.87
2018-04-23T14:23:47.038Z,12.13
2018-04-23T14:26:13.879Z,12.63
2018-04-23T14:28:39.984Z,12.03
2018-04-23T14:31:06.108Z,9.05
2018-04-23T14:33:32.254Z,11.35
2018-04-23T14:35:58.314Z,15.13
2018-04-23T14:38:24.509Z,13.73
2018-04-23T14:40:50.742Z,11.10
2018-04-23T14:43:16.862Z,8.83
2018-04-23T14:45:43.708Z,11.77
2018-04-23T14:48:09.806Z,11.73
2018-04-23T14:50:35.884Z,8.30
2018-04-23T14:53:02.049Z,9.63
2018-04-23T14:55:28.204Z,14.13
2018-04-23T14:57:54.339Z,7.13
2018-04-23T15:00:20.485Z,9.53
2018-04-23T15:02:46.594Z,7.57
2018-04-23T15:05:13.424Z,13.20
2018-04-23T15:07:39.721Z,10.17
2018-04-23T15:10:05.855Z,8.27
2018-04-23T15:12:32.004Z,10.27
2018-04-23T15:14:58.132Z,8.60
2018-04-23T15:17:24.265Z,8.73
2018-04-23T15:19:50.415Z,11.27
2018-04-23T15:22:16.588Z,9.07
2018-04-23T15:24:43.182Z,7.20
2018-04-23T15:27:09.235Z,11.33
2018-04-23T15:29:35.396Z,12.03
2018-04-23T15:32:01.602Z,17.67
2018-04-23T15:34:27.664Z,15.40
2018-04-23T15:36:59.525Z,10.37
2018-04-23T15:39:25.742Z,10.40
2018-04-23T15:41:52.682Z,12.60
2018-04-23T15:44:19.793Z,16.83
2018-04-23T15:46:45.942Z,11.70
2018-04-23T15:49:11.997Z,10.90
2018-04-23T15:51:38.067Z,14.97
2018-04-23T15:54:04.459Z,10.27
2018-04-23T15:56:30.731Z,9.50
2018-04-23T15:58:57.002Z,12.80
2018-04-23T16:01:23.402Z,12.37
2018-04-23T16:03:49.544Z,16.97
2018-04-23T16:06:16.332Z,16.77
2018-04-23T16:08:42.491Z,13.23
2018-04-23T16:11:09.343Z,14.67
2018-04-23T16:13:35.428Z,10.10
2018-04-23T16:16:01.625Z,9.70
2018-04-23T16:18:28.664Z,9.67
2018-04-23T16:20:54.792Z,15.52
2018-04-23T16:23:20.944Z,10.23
2018-04-23T16:25:47.172Z,11.70
2018-04-23T16:28:13.384Z,11.65
2018-04-23T16:30:39.475Z,13.20
2018-04-23T16:33:05.635Z,14.20
2018-04-23T16:35:32.455Z,11.00
2018-04-23T16:37:58.683Z,18.63
2018-04-23T16:40:25.217Z,12.30
2018-04-23T16:42:51.603Z,15.57
2018-04-23T16:45:17.839Z,11.93
2018-04-23T16:47:43.926Z,9.03
2018-04-23T16:50:10.049Z,17.13
2018-04-23T16:52:36.146Z,16.07
2018-04-23T16:55:02.235Z,8.60
2018-04-23T16:57:28.443Z,12.43
2018-04-23T16:59:54.656Z,6.93
2018-04-23T17:02:20.800Z,11.15
2018-04-23T17:04:46.870Z,8.80
2018-04-23T17:07:13.112Z,15.77
2018-04-23T17:09:39.196Z,10.35
2018-04-23T17:12:05.293Z,11.40
2018-04-23T17:14:32.200Z,9.97
2018-04-23T17:16:58.391Z,9.03
2018-04-23T17:19:25.403Z,13.10
2018-04-23T17:21:51.762Z,16.57
2018-04-23T17:26:43.878Z,10.97
2018-04-23T17:29:09.944Z,12.95
2018-04-23T17:31:36.028Z,7.07
2018-04-23T17:34:02.120Z,11.90
2018-04-23T17:36:29.024Z,10.57
2018-04-23T17:38:55.226Z,16.77
2018-04-23T17:41:21.393Z,13.80
2018-04-23T17:43:47.437Z,7.67
2018-04-23T17:46:13.555Z,19.87
2018-04-23T17:48:39.640Z,15.00
2018-04-23T17:51:06.463Z,12.40
2018-04-23T17:53:32.543Z,11.73
2018-04-23T17:55:58.639Z,14.77
2018-04-23T17:58:24.918Z,11.10
2018-04-23T18:00:51.008Z,15.07
2018-04-23T18:03:17.082Z,16.53
2018-04-23T18:05:43.882Z,11.63
2018-04-23T18:08:10.006Z,10.47
2018-04-23T18:10:36.150Z,11.40
2018-04-23T18:13:02.215Z,12.50
2018-04-23T18:15:28.279Z,11.10
2018-04-23T18:17:54.565Z,12.03
2018-04-23T18:20:20.811Z,15.07
2018-04-23T18:22:46.926Z,18.77
2018-04-23T18:25:13.025Z,15.57
2018-04-23T18:27:39.189Z,14.03
2018-04-23T18:30:05.231Z,8.43
2018-04-23T18:32:38.220Z,13.47
2018-04-23T18:35:04.361Z,11.43
2018-04-23T18:37:30.418Z,12.00
2018-04-23T18:39:56.737Z,8.13
2018-04-23T18:42:23.833Z,14.17
2018-04-23T18:44:50.055Z,9.07
2018-04-23T18:47:16.149Z,9.50
2018-04-23T18:49:42.861Z,10.03
2018-04-23T18:52:09.114Z,7.90
2018-04-23T18:54:35.272Z,9.07
2018-04-23T18:57:01.921Z,10.63
2018-04-23T18:59:28.109Z,18.17
2018-04-23T19:01:54.473Z,8.83
2018-04-23T19:04:20.639Z,9.07
2018-04-23T19:06:46.720Z,16.10
2018-04-23T19:09:13.050Z,12.43
2018-04-23T19:11:39.095Z,6.80
2018-04-23T19:14:05.211Z,13.63
2018-04-23T19:16:31.371Z,12.90
2018-04-23T19:18:57.458Z,8.73
2018-04-23T19:21:24.435Z,8.33
2018-04-23T19:23:50.527Z,6.70
2018-04-23T19:26:16.763Z,6.30
2018-04-23T19:28:43.563Z,6.87
2018-04-23T19:31:09.612Z,6.23
2018-04-23T19:33:35.742Z,4.30
2018-04-23T19:36:01.877Z,6.50
2018-04-23T19:38:28.054Z,7.90
2018-04-23T19:40:54.641Z,7.20
2018-04-23T19:43:20.754Z,5.97
2018-04-23T19:45:46.881Z,6.53
2018-04-23T19:48:13.011Z,9.60
2018-04-23T19:50:39.092Z,11.37
2018-04-23T19:53:05.198Z,5.73
2018-04-23T19:55:31.347Z,7.37
2018-04-23T19:57:57.446Z,6.40
2018-04-23T20:00:23.573Z,7.10
2018-04-23T20:02:50.135Z,16.13
2018-04-23T20:05:16.256Z,12.00
2018-04-23T20:07:42.323Z,8.40
2018-04-23T20:10:08.427Z,14.33
2018-04-23T20:12:35.254Z,8.90
2018-04-23T20:15:01.358Z,10.60
2018-04-23T20:17:27.430Z,8.23
2018-04-23T20:19:54.273Z,7.10
2018-04-23T20:22:20.468Z,6.00
2018-04-23T20:24:46.494Z,10.80
2018-04-23T20:27:12.526Z,11.30
2018-04-23T20:29:38.597Z,6.40
2018-04-23T20:32:05.400Z,13.77
2018-04-23T20:34:31.618Z,4.03
2018-04-23T20:36:57.748Z,10.37
2018-04-23T20:39:23.855Z,6.87
2018-04-23T20:41:49.938Z,7.83
2018-04-23T20:44:16.036Z,6.03
2018-04-23T20:46:42.138Z,10.40
2018-04-23T20:49:08.953Z,4.73
2018-04-23T20:51:35.079Z,8.57
2018-04-23T20:54:01.182Z,9.03
2018-04-23T20:56:27.259Z,18.20
2018-04-23T20:58:53.721Z,8.97
2018-04-23T21:01:19.815Z,9.97
2018-04-23T21:03:45.940Z,8.83
2018-04-23T21:06:12.782Z,9.07
2018-04-23T21:08:38.825Z,7.80
2018-04-23T21:11:04.887Z,13.80
2018-04-23T21:13:30.991Z,9.37
2018-04-23T21:15:57.156Z,11.73
2018-04-23T21:18:23.249Z,7.93
2018-04-23T21:20:49.329Z,13.30
2018-04-23T21:23:15.383Z,10.07
2018-04-23T21:25:41.537Z,10.53
2018-04-23T21:28:07.617Z,20.40
2018-04-23T21:30:33.680Z,14.07
2018-04-23T21:33:00.768Z,14.63
2018-04-23T21:35:26.837Z,19.57
2018-04-23T21:37:52.877Z,21.37
2018-04-23T21:40:18.990Z,9.57
2018-04-23T21:42:45.023Z,13.40
2018-04-23T21:45:11.113Z,18.23
2018-04-23T21:47:37.953Z,13.30
2018-04-23T21:50:04.025Z,20.77
2018-04-23T21:52:30.112Z,14.97
2018-04-23T21:54:56.189Z,13.47
2018-04-23T21:57:23.221Z,19.67
2018-04-23T21:59:49.356Z,13.80
2018-04-23T22:02:15.429Z,20.43
2018-04-23T22:04:42.235Z,12.57
2018-04-23T22:07:08.305Z,17.70
2018-04-23T22:09:34.428Z,14.17
2018-04-23T22:12:00.537Z,15.70
2018-04-23T22:14:26.593Z,11.53
2018-04-23T22:16:52.699Z,13.93
2018-04-23T22:19:18.738Z,13.30
2018-04-23T22:21:44.814Z,17.40
2018-04-23T22:24:10.884Z,21.17
2018-04-23T22:26:37.708Z,20.20
2018-04-23T22:29:03.849Z,11.87
2018-04-23T22:31:29.948Z,11.27
2018-04-23T22:33:56.759Z,18.13
2018-04-23T22:36:23.551Z,22.13
2018-04-23T22:38:49.904Z,19.30
2018-04-23T22:41:15.941Z,14.10
2018-04-23T22:43:42.012Z,22.77
2018-04-23T22:46:08.119Z,24.83
2018-04-23T22:48:34.159Z,26.77
2018-04-23T22:51:00.180Z,15.07
2018-04-23T22:53:26.331Z,15.17
2018-04-23T22:55:52.354Z,25.33
2018-04-23T22:58:18.458Z,20.27
2018-04-23T23:00:44.556Z,17.50
2018-04-23T23:03:10.627Z,17.90
2018-04-23T23:05:36.736Z,19.07
2018-04-23T23:08:02.787Z,17.33
2018-04-23T23:10:28.860Z,15.63
2018-04-23T23:12:54.923Z,14.17
2018-04-23T23:15:20.969Z,18.20
2018-04-23T23:17:47.044Z,15.73
2018-04-23T23:20:13.080Z,13.83
2018-04-23T23:22:46.073Z,21.40
2018-04-23T23:25:12.114Z,17.80
2018-04-23T23:27:38.513Z,18.30
2018-04-23T23:30:04.560Z,14.50
2018-04-23T23:32:30.619Z,19.53
2018-04-23T23:34:56.794Z,20.90
2018-04-23T23:37:22.838Z,13.23
2018-04-23T23:39:55.817Z,20.13
2018-04-23T23:42:21.891Z,16.53
2018-04-23T23:44:47.950Z,14.53
2018-04-23T23:47:14.038Z,13.40
2018-04-23T23:49:40.102Z,14.27
2018-04-23T23:52:06.947Z,14.37
2018-04-23T23:54:33.030Z,24.37
2018-04-23T23:56:59.081Z,10.40
2018-04-23T23:59:25.211Z,14.83
